sensor_id;sensor_type;location;lat;lon;timestamp;pressure;altitude;pressure_sealevel;temperature;humidity
64827;BME280;51265;53.972;12.286;2024-02-15T00:00:37;100912.63;;;9.10;100.00
64827;BME280;51265;53.972;12.286;2024-02-15T00:03:04;100908.00;;;9.05;100.00
64827;BME280;51265;53.972;12.286;2024-02-15T00:05:33;100907.16;;;9.05;100.00
64827;BME280;51265;53.972;12.286;2024-02-15T00:08:02;100911.56;;;9.06;100.00
64827;BME280;51265;53.972;12.286;2024-02-15T00:10:29;100908.81;;;9.06;100.00
64827;BME280;51265;53.972;12.286;2024-02-15T00:12:55;100906.06;;;9.06;100.00
64827;BME280;51265;53.972;12.286;2024-02-15T00:15:21;100915.94;;;9.07;100.00
64827;BME280;51265;53.972;12.286;2024-02-15T00:17:47;100909.63;;;9.06;100.00
64827;BME280;51265;53.972;12.286;2024-02-15T00:20:13;100911.84;;;9.04;100.00
64827;BME280;51265;53.972;12.286;2024-02-15T00:22:40;100906.06;;;9.06;100.00
64827;BME280;51265;53.972;12.286;2024-02-15T00:25:08;100900.31;;;9.07;100.00
64827;BME280;51265;53.972;12.286;2024-02-15T00:27:36;100913.19;;;9.07;100.00
64827;BME280;51265;53.972;12.286;2024-02-15T00:30:03;100911.00;;;9.09;100.00
64827;BME280;51265;53.972;12.286;2024-02-15T00:32:33;100906.88;;;9.11;100.00
64827;BME280;51265;53.972;12.286;2024-02-15T00:34:59;100901.38;;;9.11;100.00
64827;BME280;51265;53.972;12.286;2024-02-15T00:37:25;100906.03;;;9.11;100.00
64827;BME280;51265;53.972;12.286;2024-02-15T00:39:52;100902.50;;;9.05;100.00
64827;BME280;51265;53.972;12.286;2024-02-15T00:42:18;100912.66;;;9.05;100.00
64827;BME280;51265;53.972;12.286;2024-02-15T00:44:44;100917.59;;;9.08;100.00
64827;BME280;51265;53.972;12.286;2024-02-15T00:47:11;100912.13;;;9.08;100.00
64827;BME280;51265;53.972;12.286;2024-02-15T00:49:38;100923.91;;;9.08;100.00
64827;BME280;51265;53.972;12.286;2024-02-15T00:52:04;100913.75;;;9.09;100.00
64827;BME280;51265;53.972;12.286;2024-02-15T00:54:31;100918.44;;;9.08;100.00
64827;BME280;51265;53.972;12.286;2024-02-15T00:56:57;100918.44;;;9.08;100.00
64827;BME280;51265;53.972;12.286;2024-02-15T00:59:23;100919.81;;;9.06;100.00
64827;BME280;51265;53.972;12.286;2024-02-15T01:01:49;100915.69;;;9.08;100.00
64827;BME280;51265;53.972;12.286;2024-02-15T01:04:15;100922.50;;;9.11;100.00
64827;BME280;51265;53.972;12.286;2024-02-15T01:06:41;100933.50;;;9.11;100.00
64827;BME280;51265;53.972;12.286;2024-02-15T01:09:08;100929.13;;;9.10;100.00
64827;BME280;51265;53.972;12.286;2024-02-15T01:11:35;100928.00;;;9.11;100.00
64827;BME280;51265;53.972;12.286;2024-02-15T01:14:03;100926.38;;;9.10;100.00
64827;BME280;51265;53.972;12.286;2024-02-15T01:16:29;100918.44;;;9.08;100.00
64827;BME280;51265;53.972;12.286;2024-02-15T01:18:55;100920.34;;;9.08;100.00
64827;BME280;51265;53.972;12.286;2024-02-15T01:21:22;100917.03;;;9.11;100.00
64827;BME280;51265;53.972;12.286;2024-02-15T01:23:48;100922.50;;;9.11;100.00
64827;BME280;51265;53.972;12.286;2024-02-15T01:26:14;100928.00;;;9.11;100.00
64827;BME280;51265;53.972;12.286;2024-02-15T01:28:40;100920.88;;;9.10;100.00
64827;BME280;51265;53.972;12.286;2024-02-15T01:31:10;100922.50;;;9.11;100.00
64827;BME280;51265;53.972;12.286;2024-02-15T01:33:37;100924.41;;;9.15;100.00
64827;BME280;51265;53.972;12.286;2024-02-15T01:36:04;100918.69;;;9.12;100.00
64827;BME280;51265;53.972;12.286;2024-02-15T01:38:30;100915.94;;;9.12;100.00
64827;BME280;51265;53.972;12.286;2024-02-15T01:40:57;100916.50;;;9.09;100.00
64827;BME280;51265;53.972;12.286;2024-02-15T01:43:23;100908.81;;;9.06;100.00
64827;BME280;51265;53.972;12.286;2024-02-15T01:45:49;100909.06;;;9.09;100.00
64827;BME280;51265;53.972;12.286;2024-02-15T01:48:15;100903.03;;;9.12;100.00
64827;BME280;51265;53.972;12.286;2024-02-15T01:50:41;100906.03;;;9.11;100.00
64827;BME280;51265;53.972;12.286;2024-02-15T01:53:09;100906.03;;;9.11;100.00
64827;BME280;51265;53.972;12.286;2024-02-15T01:55:37;100896.44;;;9.08;100.00
64827;BME280;51265;53.972;12.286;2024-02-15T01:58:03;100899.47;;;9.07;100.00
64827;BME280;51265;53.972;12.286;2024-02-15T02:00:30;100889.53;;;9.11;100.00
64827;BME280;51265;53.972;12.286;2024-02-15T02:02:57;100889.03;;;9.09;100.00
64827;BME280;51265;53.972;12.286;2024-02-15T02:05:27;100884.38;;;9.04;100.00
64827;BME280;51265;53.972;12.286;2024-02-15T02:07:54;100882.16;;;9.06;100.00
64827;BME280;51265;53.972;12.286;2024-02-15T02:10:21;100887.66;;;9.06;100.00
64827;BME280;51265;53.972;12.286;2024-02-15T02:12:47;100885.19;;;9.05;100.00
64827;BME280;51265;53.972;12.286;2024-02-15T02:15:13;100885.19;;;9.05;100.00
64827;BME280;51265;53.972;12.286;2024-02-15T02:17:39;100888.75;;;9.05;100.00
64827;BME280;51265;53.972;12.286;2024-02-15T02:20:06;100886.56;;;9.02;100.00
64827;BME280;51265;53.972;12.286;2024-02-15T02:22:35;100894.28;;;9.00;100.00
64827;BME280;51265;53.972;12.286;2024-02-15T02:27:29;100888.78;;;9.00;100.00
64827;BME280;51265;53.972;12.286;2024-02-15T02:29:56;100888.78;;;9.00;100.00
64827;BME280;51265;53.972;12.286;2024-02-15T02:32:23;100887.13;;;9.04;100.00
64827;BME280;51265;53.972;12.286;2024-02-15T02:34:49;100892.06;;;9.02;100.00
64827;BME280;51265;53.972;12.286;2024-02-15T02:37:15;100892.88;;;9.03;100.00
64827;BME280;51265;53.972;12.286;2024-02-15T02:39:42;100896.19;;;9.05;100.00
64827;BME280;51265;53.972;12.286;2024-02-15T02:42:09;100897.56;;;9.02;100.00
64827;BME280;51265;53.972;12.286;2024-02-15T02:44:35;100896.75;;;9.02;100.00
64827;BME280;51265;53.972;12.286;2024-02-15T02:47:01;100886.56;;;9.02;100.00
64827;BME280;51265;53.972;12.286;2024-02-15T02:49:27;100886.81;;;9.06;100.00
64827;BME280;51265;53.972;12.286;2024-02-15T02:51:53;100892.88;;;9.03;100.00
64827;BME280;51265;53.972;12.286;2024-02-15T02:54:19;100895.91;;;9.01;100.00
64827;BME280;51265;53.972;12.286;2024-02-15T02:56:46;100890.69;;;9.05;100.00
64827;BME280;51265;53.972;12.286;2024-02-15T02:59:12;100892.88;;;9.03;100.00
64827;BME280;51265;53.972;12.286;2024-02-15T03:01:38;100891.50;;;9.05;100.00
64827;BME280;51265;53.972;12.286;2024-02-15T03:04:05;100892.31;;;9.06;100.00
64827;BME280;51265;53.972;12.286;2024-02-15T03:06:31;100892.88;;;9.03;100.00
64827;BME280;51265;53.972;12.286;2024-02-15T03:08:58;100891.25;;;9.02;100.00
64827;BME280;51265;53.972;12.286;2024-02-15T03:11:24;100892.66;;;8.99;100.00
64827;BME280;51265;53.972;12.286;2024-02-15T03:13:50;100898.97;;;9.00;100.00
64827;BME280;51265;53.972;12.286;2024-02-15T03:16:16;100889.34;;;8.97;100.00
64827;BME280;51265;53.972;12.286;2024-02-15T03:18:43;100901.16;;;8.97;100.00
64827;BME280;51265;53.972;12.286;2024-02-15T03:21:09;100904.44;;;9.00;100.00
64827;BME280;51265;53.972;12.286;2024-02-15T03:23:38;100902.22;;;9.02;100.00
64827;BME280;51265;53.972;12.286;2024-02-15T03:26:08;100900.59;;;9.01;100.00
64827;BME280;51265;53.972;12.286;2024-02-15T03:28:34;100895.09;;;9.01;100.00
64827;BME280;51265;53.972;12.286;2024-02-15T03:31:02;100898.97;;;9.00;100.00
64827;BME280;51265;53.972;12.286;2024-02-15T03:33:28;100903.88;;;9.03;100.00
64827;BME280;51265;53.972;12.286;2024-02-15T03:36:00;100906.09;;;9.01;100.00
64827;BME280;51265;53.972;12.286;2024-02-15T03:38:27;100906.09;;;9.01;100.00
64827;BME280;51265;53.972;12.286;2024-02-15T03:40:55;100911.03;;;8.98;100.00
64827;BME280;51265;53.972;12.286;2024-02-15T03:43:21;100908.84;;;9.01;100.00
64827;BME280;51265;53.972;12.286;2024-02-15T03:45:49;100914.03;;;9.02;100.00
64827;BME280;51265;53.972;12.286;2024-02-15T03:48:16;100911.03;;;9.04;100.00
64827;BME280;51265;53.972;12.286;2024-02-15T03:50:42;100915.72;;;9.03;100.00
64827;BME280;51265;53.972;12.286;2024-02-15T03:53:09;100911.03;;;9.04;100.00
64827;BME280;51265;53.972;12.286;2024-02-15T03:55:39;100915.94;;;9.07;100.00
64827;BME280;51265;53.972;12.286;2024-02-15T03:58:05;100916.50;;;9.09;100.00
64827;BME280;51265;53.972;12.286;2024-02-15T04:00:33;100916.78;;;9.07;100.00
64827;BME280;51265;53.972;12.286;2024-02-15T04:02:59;100915.94;;;9.07;100.00
64827;BME280;51265;53.972;12.286;2024-02-15T04:05:26;100918.69;;;9.07;100.00
64827;BME280;51265;53.972;12.286;2024-02-15T04:07:52;100913.47;;;9.05;100.00
64827;BME280;51265;53.972;12.286;2024-02-15T04:10:19;100917.59;;;9.08;100.00
64827;BME280;51265;53.972;12.286;2024-02-15T04:12:45;100919.25;;;9.09;100.00
64827;BME280;51265;53.972;12.286;2024-02-15T04:15:12;100912.63;;;9.10;100.00
64827;BME280;51265;53.972;12.286;2024-02-15T04:17:38;100909.06;;;9.09;100.00
64827;BME280;51265;53.972;12.286;2024-02-15T04:20:04;100909.34;;;9.13;100.00
64827;BME280;51265;53.972;12.286;2024-02-15T04:22:32;100908.78;;;9.16;100.00
64827;BME280;51265;53.972;12.286;2024-02-15T04:25:06;100907.66;;;9.17;100.00
64827;BME280;51265;53.972;12.286;2024-02-15T04:27:38;100908.22;;;9.14;100.00
64827;BME280;51265;53.972;12.286;2024-02-15T04:30:05;100905.50;;;9.09;100.00
64827;BME280;51265;53.972;12.286;2024-02-15T04:32:33;100918.69;;;9.12;100.00
64827;BME280;51265;53.972;12.286;2024-02-15T04:35:00;100925.25;;;9.16;100.00
64827;BME280;51265;53.972;12.286;2024-02-15T04:37:27;100923.34;;;9.16;100.00
64827;BME280;51265;53.972;12.286;2024-02-15T04:39:55;100926.34;;;9.15;100.00
64827;BME280;51265;53.972;12.286;2024-02-15T04:42:22;100920.31;;;9.13;100.00
64827;BME280;51265;53.972;12.286;2024-02-15T04:44:48;100927.47;;;9.14;100.00
64827;BME280;51265;53.972;12.286;2024-02-15T04:47:17;100931.28;;;9.18;100.00
64827;BME280;51265;53.972;12.286;2024-02-15T04:49:44;100930.19;;;9.19;100.00
64827;BME280;51265;53.972;12.286;2024-02-15T04:52:10;100934.59;;;9.20;100.00
64827;BME280;51265;53.972;12.286;2024-02-15T04:54:36;100928.53;;;9.18;100.00
64827;BME280;51265;53.972;12.286;2024-02-15T04:57:02;100929.66;;;9.17;100.00
64827;BME280;51265;53.972;12.286;2024-02-15T04:59:28;100931.56;;;9.16;100.00
64827;BME280;51265;53.972;12.286;2024-02-15T05:01:55;100927.97;;;9.21;100.00
64827;BME280;51265;53.972;12.286;2024-02-15T05:04:22;100930.44;;;9.22;100.00
64827;BME280;51265;53.972;12.286;2024-02-15T05:06:51;100925.22;;;9.21;100.00
64827;BME280;51265;53.972;12.286;2024-02-15T05:09:17;100932.94;;;9.19;100.00
64827;BME280;51265;53.972;12.286;2024-02-15T05:11:44;100933.47;;;9.21;100.00
64827;BME280;51265;53.972;12.286;2024-02-15T05:14:14;100938.41;;;9.24;100.00
64827;BME280;51265;53.972;12.286;2024-02-15T05:16:46;100943.91;;;9.24;100.00
64827;BME280;51265;53.972;12.286;2024-02-15T05:19:15;100940.88;;;9.26;100.00
64827;BME280;51265;53.972;12.286;2024-02-15T05:21:42;100936.19;;;9.26;100.00
64827;BME280;51265;53.972;12.286;2024-02-15T05:24:15;100937.84;;;9.27;100.00
64827;BME280;51265;53.972;12.286;2024-02-15T05:26:43;100939.50;;;9.28;100.00
64827;BME280;51265;53.972;12.286;2024-02-15T05:29:13;100935.63;;;9.29;100.00
64827;BME280;51265;53.972;12.286;2024-02-15T05:31:39;100935.63;;;9.29;100.00
64827;BME280;51265;53.972;12.286;2024-02-15T05:34:06;100939.72;;;9.32;100.00
64827;BME280;51265;53.972;12.286;2024-02-15T05:36:34;100937.28;;;9.30;100.00
64827;BME280;51265;53.972;12.286;2024-02-15T05:39:00;100934.53;;;9.30;100.00
64827;BME280;51265;53.972;12.286;2024-02-15T05:41:28;100932.91;;;9.29;100.00
64827;BME280;51265;53.972;12.286;2024-02-15T05:43:55;100932.91;;;9.29;100.00
64827;BME280;51265;53.972;12.286;2024-02-15T05:46:23;100930.16;;;9.29;100.00
64827;BME280;51265;53.972;12.286;2024-02-15T05:48:50;100928.22;;;9.30;100.00
64827;BME280;51265;53.972;12.286;2024-02-15T05:51:17;100932.59;;;9.31;100.00
64827;BME280;51265;53.972;12.286;2024-02-15T05:53:43;100926.84;;;9.27;100.00
64827;BME280;51265;53.972;12.286;2024-02-15T05:56:10;100926.28;;;9.30;100.00
64827;BME280;51265;53.972;12.286;2024-02-15T05:58:37;100929.84;;;9.31;100.00
64827;BME280;51265;53.972;12.286;2024-02-15T06:01:04;100934.22;;;9.32;100.00
64827;BME280;51265;53.972;12.286;2024-02-15T06:03:37;100932.03;;;9.34;100.00
64827;BME280;51265;53.972;12.286;2024-02-15T06:06:05;100929.59;;;9.32;100.00
64827;BME280;51265;53.972;12.286;2024-02-15T06:08:34;100939.47;;;9.33;100.00
64827;BME280;51265;53.972;12.286;2024-02-15T06:11:01;100936.16;;;9.31;100.00
64827;BME280;51265;53.972;12.286;2024-02-15T06:13:27;100941.41;;;9.33;100.00
64827;BME280;51265;53.972;12.286;2024-02-15T06:15:54;100942.22;;;9.33;100.00
64827;BME280;51265;53.972;12.286;2024-02-15T06:18:25;100935.91;;;9.33;100.00
64827;BME280;51265;53.972;12.286;2024-02-15T06:20:52;100943.56;;;9.36;100.00
64827;BME280;51265;53.972;12.286;2024-02-15T06:23:19;100950.72;;;9.37;100.00
64827;BME280;51265;53.972;12.286;2024-02-15T06:25:46;100948.25;;;9.35;100.00
64827;BME280;51265;53.972;12.286;2024-02-15T06:28:17;100953.69;;;9.40;100.00
64827;BME280;51265;53.972;12.286;2024-02-15T06:31:07;100944.63;;;9.40;100.00
64827;BME280;51265;53.972;12.286;2024-02-15T06:33:52;100949.63;;;9.38;100.00
64827;BME280;51265;53.972;12.286;2024-02-15T06:36:56;100952.06;;;9.39;100.00
64827;BME280;51265;53.972;12.286;2024-02-15T06:39:41;100958.38;;;9.40;100.00
64827;BME280;51265;53.972;12.286;2024-02-15T06:42:11;100960.28;;;9.44;100.00
64827;BME280;51265;53.972;12.286;2024-02-15T06:44:40;100953.97;;;9.44;100.00
64827;BME280;51265;53.972;12.286;2024-02-15T06:47:07;100959.72;;;9.47;100.00
64827;BME280;51265;53.972;12.286;2024-02-15T06:49:34;100955.84;;;9.48;100.00
64827;BME280;51265;53.972;12.286;2024-02-15T06:52:00;100960.28;;;9.50;100.00
64827;BME280;51265;53.972;12.286;2024-02-15T06:54:28;100963.56;;;9.52;100.00
64827;BME280;51265;53.972;12.286;2024-02-15T06:56:54;100962.44;;;9.53;100.00
64827;BME280;51265;53.972;12.286;2024-02-15T06:59:21;100962.44;;;9.53;100.00
64827;BME280;51265;53.972;12.286;2024-02-15T07:01:51;100966.56;;;9.55;100.00
64827;BME280;51265;53.972;12.286;2024-02-15T07:04:18;100963.78;;;9.60;100.00
64827;BME280;51265;53.972;12.286;2024-02-15T07:06:46;100973.41;;;9.63;100.00
64827;BME280;51265;53.972;12.286;2024-02-15T07:09:14;100968.97;;;9.67;100.00
64827;BME280;51265;53.972;12.286;2024-02-15T07:11:45;100974.47;;;9.67;100.00
64827;BME280;51265;53.972;12.286;2024-02-15T07:14:12;100961.50;;;9.72;100.00
64827;BME280;51265;53.972;12.286;2024-02-15T07:16:39;100961.50;;;9.72;100.00
64827;BME280;51265;53.972;12.286;2024-02-15T07:19:05;100968.41;;;9.70;100.00
64827;BME280;51265;53.972;12.286;2024-02-15T07:21:31;100967.81;;;9.73;100.00
64827;BME280;51265;53.972;12.286;2024-02-15T07:23:58;100974.13;;;9.73;100.00
64827;BME280;51265;53.972;12.286;2024-02-15T07:26:25;100977.69;;;9.79;100.00
64827;BME280;51265;53.972;12.286;2024-02-15T07:28:52;100984.84;;;9.80;100.00
64827;BME280;51265;53.972;12.286;2024-02-15T07:31:22;100985.91;;;9.84;100.00
64827;BME280;51265;53.972;12.286;2024-02-15T07:33:52;100988.06;;;9.92;100.00
64827;BME280;51265;53.972;12.286;2024-02-15T07:36:23;100982.56;;;9.92;100.00
64827;BME280;51265;53.972;12.286;2024-02-15T07:38:50;100988.56;;;10.00;100.00
64827;BME280;51265;53.972;12.286;2024-02-15T07:41:23;100986.91;;;10.04;100.00
64827;BME280;51265;53.972;12.286;2024-02-15T07:43:51;100979.97;;;10.06;100.00
64827;BME280;51265;53.972;12.286;2024-02-15T07:46:21;100979.94;;;10.11;100.00
64827;BME280;51265;53.972;12.286;2024-02-15T07:48:48;100985.69;;;10.15;100.00
64827;BME280;51265;53.972;12.286;2024-02-15T07:51:18;100985.38;;;10.21;100.00
64827;BME280;51265;53.972;12.286;2024-02-15T07:53:45;100989.75;;;10.28;100.00
64827;BME280;51265;53.972;12.286;2024-02-15T07:56:12;100991.38;;;10.34;100.00
64827;BME280;51265;53.972;12.286;2024-02-15T07:58:43;100992.13;;;10.39;100.00
64827;BME280;51265;53.972;12.286;2024-02-15T08:01:14;100988.25;;;10.40;100.00
64827;BME280;51265;53.972;12.286;2024-02-15T08:03:40;100988.25;;;10.40;100.00
64827;BME280;51265;53.972;12.286;2024-02-15T08:06:11;100989.94;;;10.41;100.00
64827;BME280;51265;53.972;12.286;2024-02-15T08:08:39;100990.38;;;10.48;100.00
64827;BME280;51265;53.972;12.286;2024-02-15T08:11:10;100978.09;;;10.41;100.00
64827;BME280;51265;53.972;12.286;2024-02-15T08:16:13;100986.56;;;10.50;100.00
64827;BME280;51265;53.972;12.286;2024-02-15T08:18:43;100991.13;;;10.59;100.00
64827;BME280;51265;53.972;12.286;2024-02-15T08:21:10;100988.44;;;10.54;100.00
64827;BME280;51265;53.972;12.286;2024-02-15T08:23:36;100992.00;;;10.55;100.00
64827;BME280;51265;53.972;12.286;2024-02-15T08:26:03;100996.06;;;10.62;100.00
64827;BME280;51265;53.972;12.286;2024-02-15T08:28:29;100990.81;;;10.66;100.00
64827;BME280;51265;53.972;12.286;2024-02-15T08:30:55;100989.63;;;10.72;100.00
64827;BME280;51265;53.972;12.286;2024-02-15T08:33:24;100985.19;;;10.76;100.00
64827;BME280;51265;53.972;12.286;2024-02-15T08:35:50;100986.63;;;10.68;100.00
64827;BME280;51265;53.972;12.286;2024-02-15T08:38:17;100980.00;;;10.69;100.00
64827;BME280;51265;53.972;12.286;2024-02-15T08:40:46;100981.66;;;10.70;100.00
64827;BME280;51265;53.972;12.286;2024-02-15T08:43:13;100969.16;;;10.78;100.00
64827;BME280;51265;53.972;12.286;2024-02-15T08:45:42;100975.56;;;10.73;100.00
64827;BME280;51265;53.972;12.286;2024-02-15T08:48:08;100973.09;;;10.72;100.00
64827;BME280;51265;53.972;12.286;2024-02-15T08:50:34;100975.78;;;10.77;100.00
64827;BME280;51265;53.972;12.286;2024-02-15T08:53:01;100971.81;;;10.88;100.00
64827;BME280;51265;53.972;12.286;2024-02-15T08:55:32;100972.13;;;10.87;100.00
64827;BME280;51265;53.972;12.286;2024-02-15T08:57:58;100976.22;;;10.89;100.00
64827;BME280;51265;53.972;12.286;2024-02-15T09:00:25;100971.69;;;10.98;100.00
64827;BME280;51265;53.972;12.286;2024-02-15T09:02:53;100968.59;;;11.05;100.00
64827;BME280;51265;53.972;12.286;2024-02-15T09:05:19;100968.53;;;11.10;100.00
64827;BME280;51265;53.972;12.286;2024-02-15T09:07:48;100967.81;;;11.23;100.00
64827;BME280;51265;53.972;12.286;2024-02-15T09:10:16;100970.75;;;11.32;100.00
64827;BME280;51265;53.972;12.286;2024-02-15T09:12:44;100967.94;;;11.37;100.00
64827;BME280;51265;53.972;12.286;2024-02-15T09:15:13;100970.47;;;11.53;100.00
64827;BME280;51265;53.972;12.286;2024-02-15T09:17:41;100968.84;;;11.52;100.00
64827;BME280;51265;53.972;12.286;2024-02-15T09:20:08;100968.09;;;11.65;100.00
64827;BME280;51265;53.972;12.286;2024-02-15T09:22:48;100971.91;;;11.69;100.00
64827;BME280;51265;53.972;12.286;2024-02-15T09:25:14;100980.34;;;11.78;100.00
64827;BME280;51265;53.972;12.286;2024-02-15T09:27:42;100969.72;;;11.66;100.00
64827;BME280;51265;53.972;12.286;2024-02-15T09:30:09;100969.31;;;11.59;100.00
64827;BME280;51265;53.972;12.286;2024-02-15T09:32:36;100962.75;;;11.55;100.00
64827;BME280;51265;53.972;12.286;2024-02-15T09:35:02;100967.63;;;11.58;100.00
64827;BME280;51265;53.972;12.286;2024-02-15T09:37:29;100965.25;;;11.70;100.00
64827;BME280;51265;53.972;12.286;2024-02-15T09:39:55;100959.88;;;11.84;100.00
64827;BME280;51265;53.972;12.286;2024-02-15T09:42:21;100959.47;;;11.90;100.00
64827;BME280;51265;53.972;12.286;2024-02-15T09:44:49;100952.53;;;11.93;100.00
64827;BME280;51265;53.972;12.286;2024-02-15T09:47:17;100957.84;;;11.89;100.00
64827;BME280;51265;53.972;12.286;2024-02-15T09:49:44;100938.22;;;11.91;100.00
64827;BME280;51265;53.972;12.286;2024-02-15T09:52:10;100942.56;;;11.97;100.00
64827;BME280;51265;53.972;12.286;2024-02-15T09:54:42;100938.88;;;12.02;100.00
64827;BME280;51265;53.972;12.286;2024-02-15T09:57:11;100943.00;;;12.04;100.00
64827;BME280;51265;53.972;12.286;2024-02-15T09:59:38;100945.53;;;12.01;100.00
64827;BME280;51265;53.972;12.286;2024-02-15T10:02:05;100941.28;;;11.89;100.00
64827;BME280;51265;53.972;12.286;2024-02-15T10:04:37;100935.28;;;11.82;100.00
64827;BME280;51265;53.972;12.286;2024-02-15T10:07:04;100936.34;;;11.86;100.00
64827;BME280;51265;53.972;12.286;2024-02-15T10:09:30;100931.88;;;11.90;100.00
64827;BME280;51265;53.972;12.286;2024-02-15T10:11:58;100935.59;;;12.00;100.00
64827;BME280;51265;53.972;12.286;2024-02-15T10:14:25;100934.22;;;12.16;100.00
64827;BME280;51265;53.972;12.286;2024-02-15T10:16:52;100926.00;;;12.30;100.00
64827;BME280;51265;53.972;12.286;2024-02-15T10:19:20;100930.81;;;12.38;100.00
64827;BME280;51265;53.972;12.286;2024-02-15T10:21:54;100923.44;;;12.33;100.00
64827;BME280;51265;53.972;12.286;2024-02-15T10:24:23;100919.97;;;12.41;100.00
64827;BME280;51265;53.972;12.286;2024-02-15T10:27:01;100919.78;;;12.38;100.00
64827;BME280;51265;53.972;12.286;2024-02-15T10:29:30;100916.59;;;12.44;100.00
64827;BME280;51265;53.972;12.286;2024-02-15T10:31:58;100910.56;;;12.42;100.00
64827;BME280;51265;53.972;12.286;2024-02-15T10:34:28;100911.91;;;12.45;100.00
64827;BME280;51265;53.972;12.286;2024-02-15T10:36:55;100900.56;;;12.46;100.00
64827;BME280;51265;53.972;12.286;2024-02-15T10:39:24;100905.34;;;12.41;100.00
64827;BME280;51265;53.972;12.286;2024-02-15T10:41:52;100899.63;;;12.37;100.00
64827;BME280;51265;53.972;12.286;2024-02-15T10:44:20;100893.34;;;12.32;100.00
64827;BME280;51265;53.972;12.286;2024-02-15T10:46:48;100893.34;;;12.32;100.00
64827;BME280;51265;53.972;12.286;2024-02-15T10:49:18;100890.22;;;12.06;100.00
64827;BME280;51265;53.972;12.286;2024-02-15T10:51:44;100894.91;;;11.91;100.00
64827;BME280;51265;53.972;12.286;2024-02-15T10:54:23;100880.84;;;11.69;100.00
64827;BME280;51265;53.972;12.286;2024-02-15T10:56:53;100872.66;;;11.64;100.00
64827;BME280;51265;53.972;12.286;2024-02-15T10:59:24;100879.00;;;11.64;100.00
64827;BME280;51265;53.972;12.286;2024-02-15T11:01:59;100879.38;;;11.58;100.00
64827;BME280;51265;53.972;12.286;2024-02-15T11:04:27;100874.06;;;11.61;100.00
64827;BME280;51265;53.972;12.286;2024-02-15T11:06:58;100876.84;;;11.61;100.00
64827;BME280;51265;53.972;12.286;2024-02-15T11:09:26;100871.03;;;11.63;100.00
64827;BME280;51265;53.972;12.286;2024-02-15T11:11:55;100884.38;;;11.75;100.00
64827;BME280;51265;53.972;12.286;2024-02-15T11:14:26;100883.97;;;11.81;100.00
64827;BME280;51265;53.972;12.286;2024-02-15T11:16:53;100883.41;;;11.84;100.00
64827;BME280;51265;53.972;12.286;2024-02-15T11:19:40;100883.31;;;11.89;100.00
64827;BME280;51265;53.972;12.286;2024-02-15T11:22:19;100883.06;;;12.05;100.00
64827;BME280;51265;53.972;12.286;2024-02-15T11:24:51;100892.72;;;12.21;100.00
64827;BME280;51265;53.972;12.286;2024-02-15T11:27:28;100894.16;;;12.32;100.00
64827;BME280;51265;53.972;12.286;2024-02-15T11:29:56;100886.41;;;12.34;100.00
64827;BME280;51265;53.972;12.286;2024-02-15T11:35:22;100871.84;;;12.29;100.00
64827;BME280;51265;53.972;12.286;2024-02-15T11:37:54;100860.00;;;12.28;100.00
64827;BME280;51265;53.972;12.286;2024-02-15T11:43:07;100864.69;;;12.14;100.00
64827;BME280;51265;53.972;12.286;2024-02-15T11:45:35;100859.97;;;12.14;100.00
64827;BME280;51265;53.972;12.286;2024-02-15T11:48:14;100863.75;;;12.05;100.00
64827;BME280;51265;53.972;12.286;2024-02-15T11:50:40;100852.19;;;12.03;100.00
64827;BME280;51265;53.972;12.286;2024-02-15T11:53:08;100853.41;;;11.96;100.00
64827;BME280;51265;53.972;12.286;2024-02-15T11:55:37;100847.88;;;11.96;100.00
64827;BME280;51265;53.972;12.286;2024-02-15T11:58:04;100848.59;;;12.02;100.00
64827;BME280;51265;53.972;12.286;2024-02-15T12:00:42;100845.69;;;12.12;100.00
64827;BME280;51265;53.972;12.286;2024-02-15T12:03:27;100848.13;;;12.14;100.00
64827;BME280;51265;53.972;12.286;2024-02-15T12:06:16;100840.28;;;12.21;100.00
64827;BME280;51265;53.972;12.286;2024-02-15T12:09:02;100846.72;;;12.30;100.00
64827;BME280;51265;53.972;12.286;2024-02-15T12:11:47;100838.53;;;12.25;100.00
64827;BME280;51265;53.972;12.286;2024-02-15T12:14:41;100839.75;;;12.19;100.00
64827;BME280;51265;53.972;12.286;2024-02-15T12:17:26;100829.94;;;12.27;100.00
64827;BME280;51265;53.972;12.286;2024-02-15T12:20:10;100827.38;;;12.30;100.00
64827;BME280;51265;53.972;12.286;2024-02-15T12:22:45;100830.16;;;12.30;100.00
64827;BME280;51265;53.972;12.286;2024-02-15T12:25:16;100828.94;;;12.50;100.00
64827;BME280;51265;53.972;12.286;2024-02-15T12:27:55;100819.72;;;12.55;100.00
64827;BME280;51265;53.972;12.286;2024-02-15T12:30:22;100825.25;;;12.55;100.00
64827;BME280;51265;53.972;12.286;2024-02-15T12:32:49;100817.47;;;12.57;100.00
64827;BME280;51265;53.972;12.286;2024-02-15T12:35:20;100802.72;;;12.61;100.00
64827;BME280;51265;53.972;12.286;2024-02-15T12:37:47;100808.88;;;12.72;100.00
64827;BME280;51265;53.972;12.286;2024-02-15T12:40:16;100807.00;;;12.81;100.00
64827;BME280;51265;53.972;12.286;2024-02-15T12:42:44;100809.44;;;12.83;100.00
64827;BME280;51265;53.972;12.286;2024-02-15T12:45:17;100804.16;;;12.73;100.00
64827;BME280;51265;53.972;12.286;2024-02-15T12:47:50;100797.81;;;12.72;100.00
64827;BME280;51265;53.972;12.286;2024-02-15T12:50:21;100798.22;;;12.79;100.00
64827;BME280;51265;53.972;12.286;2024-02-15T12:52:49;100797.47;;;12.87;100.00